Time;durP1;ratioP1;P1;durP2;ratioP2;P2;SDS_P1;SDS_P2;PMS_P1;PMS_P2;Temp;Humidity;BMP_temperature;BMP_pressure;BME280_temperature;BME280_humidity;BME280_pressure;Samples;Min_cycle;Max_cycle;Signal;HPM_P1;HPM_P2
2022/06/06 00:00:50;;;;;;;;;;;17.40;99.90;;;;;;4591349;19;19919;-25
2022/06/06 00:02:21;;;;;;;;;;;17.40;99.90;;;;;;4591693;19;19915;-25
2022/06/06 00:03:52;;;;;;;;;;;17.40;99.90;;;;;;4590333;19;20262;-24
2022/06/06 00:05:23;;;;;;;;;;;17.40;99.90;;;;;;4591084;19;19982;-27
2022/06/06 00:06:55;;;;;;;;;;;17.40;99.90;;;;;;4591448;19;19930;-27
2022/06/06 00:08:26;;;;;;;;;;;17.40;99.90;;;;;;4591461;19;19939;-27
2022/06/06 00:09:57;;;;;;;;;;;17.40;99.90;;;;;;4590572;19;19915;-26
2022/06/06 00:11:30;;;;;;;;;;;17.40;99.90;;;;;;4590079;19;20338;-25
2022/06/06 00:13:01;;;;;;;;;;;17.40;99.90;;;;;;4590443;19;19921;-25
2022/06/06 00:14:32;;;;;;;;;;;17.40;99.90;;;;;;4590813;19;19940;-26
2022/06/06 00:16:03;;;;;;;;;;;17.40;99.90;;;;;;4591182;19;19930;-26
2022/06/06 00:17:36;;;;;;;;;;;17.40;99.90;;;;;;4590125;19;19985;-25
2022/06/06 00:19:07;;;;;;;;;;;17.40;99.90;;;;;;4591243;19;19915;-25
2022/06/06 00:20:38;;;;;;;;;;;17.40;99.90;;;;;;4590922;19;19911;-24
2022/06/06 00:22:09;;;;;;;;;;;17.40;99.90;;;;;;4591339;19;19919;-27
2022/06/06 00:23:40;;;;;;;;;;;17.40;99.90;;;;;;4591366;19;20330;-26
2022/06/06 00:25:11;;;;;;;;;;;17.40;99.90;;;;;;4591430;19;19970;-25
2022/06/06 00:26:42;;;;;;;;;;;17.40;99.90;;;;;;4590854;19;19914;-26
2022/06/06 00:28:13;;;;;;;;;;;17.30;99.90;;;;;;4589686;19;19918;-27
2022/06/06 00:29:44;;;;;;;;;;;17.40;99.90;;;;;;4590228;19;19978;-26
2022/06/06 00:34:54;;;;;;;;;;;17.40;99.90;;;;;;4590836;19;19911;-25
2022/06/06 00:36:25;;;;;;;;;;;17.30;99.90;;;;;;4592325;19;19934;-31
2022/06/06 00:37:56;;;;;;;;;;;17.30;99.90;;;;;;4595700;19;19922;-26
2022/06/06 00:39:27;;;;;;;;;;;17.30;99.90;;;;;;4595718;19;19923;-31
2022/06/06 00:40:59;;;;;;;;;;;17.30;99.90;;;;;;4595716;19;19978;-25
2022/06/06 00:42:30;;;;;;;;;;;17.30;99.90;;;;;;4595629;19;19927;-28
2022/06/06 00:44:08;;;;;;;;;;;17.30;99.90;;;;;;4596296;19;19915;-27
2022/06/06 00:45:39;;;;;;;;;;;17.30;99.90;;;;;;4595774;19;19923;-26
2022/06/06 00:47:14;;;;;;;;;;;17.30;99.90;;;;;;4594347;19;19923;-27
2022/06/06 00:48:44;;;;;;;;;;;17.30;99.90;;;;;;4595021;19;19946;-24
2022/06/06 00:50:16;;;;;;;;;;;17.30;99.90;;;;;;4593254;19;20313;-27
2022/06/06 00:51:47;;;;;;;;;;;17.30;99.90;;;;;;4594893;19;19942;-25
2022/06/06 00:53:20;;;;;;;;;;;17.30;99.90;;;;;;4593966;19;19927;-25
2022/06/06 00:54:52;;;;;;;;;;;17.30;99.90;;;;;;4594272;19;19918;-29
2022/06/06 00:56:23;;;;;;;;;;;17.30;99.90;;;;;;4594848;19;19911;-25
2022/06/06 00:57:56;;;;;;;;;;;17.30;99.90;;;;;;4594656;19;19911;-26
2022/06/06 00:59:28;;;;;;;;;;;17.30;99.90;;;;;;4595349;19;20349;-25
2022/06/06 01:00:59;;;;;;;;;;;17.30;99.90;;;;;;4593865;19;20269;-24
2022/06/06 01:02:29;;;;;;;;;;;17.30;99.90;;;;;;4595236;19;19915;-25
2022/06/06 01:04:01;;;;;;;;;;;17.30;99.90;;;;;;4595286;19;20337;-26
2022/06/06 01:05:32;;;;;;;;;;;17.30;99.90;;;;;;4594123;19;19935;-29
2022/06/06 01:07:04;;;;;;;;;;;17.30;99.90;;;;;;4593089;19;19922;-27
2022/06/06 01:08:35;;;;;;;;;;;17.30;99.90;;;;;;4593727;19;19970;-26
2022/06/06 01:10:07;;;;;;;;;;;17.30;99.90;;;;;;4593358;19;19927;-28
2022/06/06 01:11:40;;;;;;;;;;;17.30;99.90;;;;;;4595362;19;19931;-25
2022/06/06 01:13:11;;;;;;;;;;;17.30;99.90;;;;;;4593896;19;20326;-27
2022/06/06 01:14:50;;;;;;;;;;;17.30;99.90;;;;;;4594321;19;19937;-26
2022/06/06 01:16:23;;;;;;;;;;;17.30;99.90;;;;;;4594989;19;19925;-25
2022/06/06 01:18:06;;;;;;;;;;;17.30;99.90;;;;;;4595201;19;19918;-25
2022/06/06 01:19:39;;;;;;;;;;;17.30;99.90;;;;;;4593919;19;19949;-25
2022/06/06 01:21:10;;;;;;;;;;;17.30;99.90;;;;;;4594424;19;19922;-25
2022/06/06 01:22:58;;;;;;;;;;;17.30;99.90;;;;;;4594638;19;19919;-28
2022/06/06 01:24:33;;;;;;;;;;;17.30;99.90;;;;;;4593425;19;19915;-25
2022/06/06 01:26:07;;;;;;;;;;;17.30;99.90;;;;;;4594301;19;20373;-26
2022/06/06 01:27:57;;;;;;;;;;;17.30;99.90;;;;;;4594828;19;20250;-28
2022/06/06 01:29:28;;;;;;;;;;;17.30;99.90;;;;;;4593426;19;19915;-25
2022/06/06 01:31:01;;;;;;;;;;;17.30;99.90;;;;;;4594073;19;19926;-27
2022/06/06 01:32:40;;;;;;;;;;;17.30;99.90;;;;;;4593367;19;20376;-25
2022/06/06 01:34:12;;;;;;;;;;;17.30;99.90;;;;;;4594640;19;19911;-26
2022/06/06 01:35:46;;;;;;;;;;;17.30;99.90;;;;;;4594781;19;19915;-26
2022/06/06 01:37:37;;;;;;;;;;;17.30;99.90;;;;;;4594579;19;20326;-25
2022/06/06 01:39:09;;;;;;;;;;;17.30;99.90;;;;;;4594602;19;19926;-28
2022/06/06 01:40:42;;;;;;;;;;;17.30;99.90;;;;;;4593553;19;20381;-26
2022/06/06 01:42:15;;;;;;;;;;;17.30;99.90;;;;;;4594022;19;20242;-26
2022/06/06 01:43:49;;;;;;;;;;;17.30;99.90;;;;;;4594000;19;19935;-25
2022/06/06 01:45:38;;;;;;;;;;;17.30;99.90;;;;;;4593075;19;19921;-28
2022/06/06 01:47:12;;;;;;;;;;;17.30;99.90;;;;;;4594254;19;19986;-26
2022/06/06 01:48:43;;;;;;;;;;;17.30;99.90;;;;;;4591191;19;19931;-25
2022/06/06 01:50:15;;;;;;;;;;;17.30;99.90;;;;;;4592296;19;19930;-25
2022/06/06 01:51:56;;;;;;;;;;;17.30;99.90;;;;;;4594138;19;19907;-24
2022/06/06 01:53:27;;;;;;;;;;;17.20;99.90;;;;;;4593927;19;19918;-25
2022/06/06 01:54:58;;;;;;;;;;;17.30;99.90;;;;;;4592732;19;20439;-26
2022/06/06 01:56:31;;;;;;;;;;;17.30;99.90;;;;;;4593499;19;19914;-25
2022/06/06 01:58:03;;;;;;;;;;;17.30;99.90;;;;;;4594236;19;20309;-30
2022/06/06 01:59:34;;;;;;;;;;;17.20;99.90;;;;;;4594420;19;19918;-28
2022/06/06 02:01:05;;;;;;;;;;;17.30;99.90;;;;;;4594050;19;19910;-28
2022/06/06 02:02:36;;;;;;;;;;;17.30;99.90;;;;;;4593735;19;19919;-25
2022/06/06 02:04:07;;;;;;;;;;;17.20;99.90;;;;;;4594103;19;19981;-28
2022/06/06 02:05:38;;;;;;;;;;;17.30;99.90;;;;;;4593946;19;20338;-28
2022/06/06 02:07:09;;;;;;;;;;;17.20;99.90;;;;;;4592882;19;20264;-25
2022/06/06 02:08:40;;;;;;;;;;;17.20;99.90;;;;;;4593731;19;20349;-25
2022/06/06 02:10:12;;;;;;;;;;;17.20;99.90;;;;;;4591674;19;19935;-27
2022/06/06 02:11:43;;;;;;;;;;;17.20;99.90;;;;;;4593100;19;19915;-27
2022/06/06 02:13:14;;;;;;;;;;;17.20;99.90;;;;;;4593624;19;19937;-26
2022/06/06 02:14:45;;;;;;;;;;;17.20;99.90;;;;;;4592276;19;19918;-25
2022/06/06 02:16:16;;;;;;;;;;;17.30;99.90;;;;;;4593546;19;20246;-24
2022/06/06 02:17:47;;;;;;;;;;;17.20;99.90;;;;;;4594148;19;19915;-27
2022/06/06 02:19:18;;;;;;;;;;;17.20;99.90;;;;;;4593358;19;19910;-30
2022/06/06 02:20:49;;;;;;;;;;;17.20;99.90;;;;;;4593252;19;19919;-26
2022/06/06 02:22:20;;;;;;;;;;;17.20;99.90;;;;;;4593633;19;19915;-25
2022/06/06 02:23:51;;;;;;;;;;;17.30;99.90;;;;;;4593689;19;19932;-26
2022/06/06 02:25:22;;;;;;;;;;;17.30;99.90;;;;;;4592203;19;19914;-27
2022/06/06 02:26:54;;;;;;;;;;;17.20;99.90;;;;;;4593458;19;19927;-25
2022/06/06 02:28:25;;;;;;;;;;;17.30;99.90;;;;;;4593550;19;19915;-26
2022/06/06 02:29:56;;;;;;;;;;;17.30;99.90;;;;;;4592786;19;19939;-26
2022/06/06 02:31:27;;;;;;;;;;;17.30;99.90;;;;;;4593266;19;19915;-25
2022/06/06 02:32:58;;;;;;;;;;;17.30;99.90;;;;;;4593398;19;19926;-23
2022/06/06 02:34:29;;;;;;;;;;;17.30;99.90;;;;;;4593867;19;19915;-25
2022/06/06 02:36:00;;;;;;;;;;;17.30;99.90;;;;;;4593088;19;19926;-26
2022/06/06 02:37:31;;;;;;;;;;;17.30;99.90;;;;;;4593402;19;19918;-28
2022/06/06 02:39:03;;;;;;;;;;;17.30;99.90;;;;;;4593247;19;19927;-29
2022/06/06 02:40:34;;;;;;;;;;;17.30;99.90;;;;;;4593708;19;20321;-26
2022/06/06 02:42:05;;;;;;;;;;;17.20;99.90;;;;;;4591908;19;19972;-25
2022/06/06 02:43:39;;;;;;;;;;;17.20;99.90;;;;;;4592638;19;20312;-32
2022/06/06 02:45:12;;;;;;;;;;;17.20;99.90;;;;;;4593422;19;19957;-26
2022/06/06 02:46:43;;;;;;;;;;;17.20;99.90;;;;;;4593667;19;19939;-25
2022/06/06 02:48:14;;;;;;;;;;;17.20;99.90;;;;;;4592821;19;19915;-26
2022/06/06 02:49:45;;;;;;;;;;;17.20;99.90;;;;;;4592488;19;19971;-23
2022/06/06 02:51:16;;;;;;;;;;;17.20;99.90;;;;;;4591959;19;19919;-25
2022/06/06 02:52:47;;;;;;;;;;;17.20;99.90;;;;;;4592664;19;19918;-26
2022/06/06 02:54:18;;;;;;;;;;;17.20;99.90;;;;;;4593120;19;19915;-25
2022/06/06 02:55:55;;;;;;;;;;;17.20;99.90;;;;;;4593373;19;19927;-27
2022/06/06 02:57:26;;;;;;;;;;;17.20;99.90;;;;;;4593305;19;19911;-28
2022/06/06 02:58:57;;;;;;;;;;;17.20;99.90;;;;;;4592488;19;19915;-27
2022/06/06 03:00:32;;;;;;;;;;;17.20;99.90;;;;;;4591394;19;19918;-26
2022/06/06 03:02:03;;;;;;;;;;;17.20;99.90;;;;;;4592642;19;19922;-28
2022/06/06 03:03:34;;;;;;;;;;;17.20;99.90;;;;;;4592873;19;20340;-25
2022/06/06 03:05:05;;;;;;;;;;;17.20;99.90;;;;;;4592397;19;20238;-26
2022/06/06 03:06:42;;;;;;;;;;;17.20;99.90;;;;;;4592341;19;19927;-25
2022/06/06 03:08:16;;;;;;;;;;;17.20;99.90;;;;;;4592985;19;19939;-25
2022/06/06 03:10:00;;;;;;;;;;;17.20;99.90;;;;;;4592803;19;19983;-26
2022/06/06 03:11:47;;;;;;;;;;;17.20;99.90;;;;;;4592690;19;20341;-24
2022/06/06 03:13:18;;;;;;;;;;;17.20;99.90;;;;;;4592255;19;19922;-26
2022/06/06 03:14:57;;;;;;;;;;;17.30;99.90;;;;;;4592945;19;19926;-29
2022/06/06 03:22:15;;;;;;;;;;;17.20;99.90;;;;;;4593055;19;20318;-26
2022/06/06 03:23:46;;;;;;;;;;;17.30;99.90;;;;;;4591099;19;20395;-29
2022/06/06 03:25:20;;;;;;;;;;;17.30;99.90;;;;;;4591594;19;20300;-25
2022/06/06 03:26:56;;;;;;;;;;;17.30;99.90;;;;;;4592694;19;19926;-30
2022/06/06 03:28:47;;;;;;;;;;;17.30;99.90;;;;;;4591595;19;19925;-25
2022/06/06 03:30:27;;;;;;;;;;;17.30;99.90;;;;;;4591168;19;19911;-27
2022/06/06 03:32:05;;;;;;;;;;;17.30;99.90;;;;;;4590786;19;19974;-27
2022/06/06 03:33:47;;;;;;;;;;;17.30;99.90;;;;;;4590902;19;19915;-25
2022/06/06 03:35:24;;;;;;;;;;;17.30;99.90;;;;;;4590707;19;19910;-27
2022/06/06 03:37:02;;;;;;;;;;;17.30;99.90;;;;;;4591944;19;19978;-26
2022/06/06 03:38:35;;;;;;;;;;;17.30;99.90;;;;;;4591985;19;19923;-27
2022/06/06 03:40:12;;;;;;;;;;;17.30;99.90;;;;;;4592004;19;19918;-26
2022/06/06 03:42:22;;;;;;;;;;;17.30;99.90;;;;;;4590696;19;19915;-26
2022/06/06 03:43:56;;;;;;;;;;;17.40;99.90;;;;;;4589650;19;20306;-27
2022/06/06 03:45:29;;;;;;;;;;;17.40;99.90;;;;;;4590099;19;19915;-25
2022/06/06 03:47:18;;;;;;;;;;;17.40;99.90;;;;;;4589709;19;20262;-26
2022/06/06 03:49:07;;;;;;;;;;;17.40;99.90;;;;;;4589386;19;19923;-25
2022/06/06 03:50:46;;;;;;;;;;;17.40;99.90;;;;;;4588295;19;19927;-26
2022/06/06 03:52:23;;;;;;;;;;;17.40;99.90;;;;;;4589552;19;19911;-26
2022/06/06 03:54:12;;;;;;;;;;;17.40;99.90;;;;;;4589479;19;19918;-24
2022/06/06 03:56:02;;;;;;;;;;;17.40;99.90;;;;;;4589623;19;20004;-27
2022/06/06 03:57:34;;;;;;;;;;;17.40;99.90;;;;;;4590160;19;19919;-25
2022/06/06 03:59:06;;;;;;;;;;;17.50;99.90;;;;;;4589233;19;19950;-25
2022/06/06 04:00:37;;;;;;;;;;;17.50;99.90;;;;;;4589335;19;19915;-26
2022/06/06 04:02:09;;;;;;;;;;;17.50;99.90;;;;;;4589228;19;19915;-26
2022/06/06 04:03:40;;;;;;;;;;;17.50;99.90;;;;;;4589229;19;20270;-25
2022/06/06 04:05:15;;;;;;;;;;;17.50;99.90;;;;;;4589016;19;19938;-25
2022/06/06 04:06:46;;;;;;;;;;;17.50;99.90;;;;;;4588546;19;20243;-25
2022/06/06 04:08:17;;;;;;;;;;;17.50;99.90;;;;;;4589085;19;20336;-27
2022/06/06 04:09:48;;;;;;;;;;;17.50;99.90;;;;;;4588787;19;19918;-28
2022/06/06 04:11:25;;;;;;;;;;;17.50;99.90;;;;;;4587521;19;19915;-28
2022/06/06 04:13:00;;;;;;;;;;;17.50;99.90;;;;;;4589126;19;19942;-30
2022/06/06 04:14:35;;;;;;;;;;;17.50;99.90;;;;;;4589894;19;19911;-27
2022/06/06 04:16:22;;;;;;;;;;;17.50;99.90;;;;;;4591470;19;19922;-25
2022/06/06 04:17:59;;;;;;;;;;;17.50;99.90;;;;;;4589866;19;19926;-26
2022/06/06 04:20:00;;;;;;;;;;;17.50;99.90;;;;;;4591038;19;19929;-24
2022/06/06 04:21:33;;;;;;;;;;;17.50;99.90;;;;;;4588738;19;19915;-26
2022/06/06 04:23:17;;;;;;;;;;;17.50;99.90;;;;;;4588960;19;19953;-26
2022/06/06 04:24:52;;;;;;;;;;;17.60;99.90;;;;;;4590137;19;19939;-27
2022/06/06 04:26:42;;;;;;;;;;;17.50;99.90;;;;;;4590049;19;19915;-26
2022/06/06 04:28:14;;;;;;;;;;;17.60;99.90;;;;;;4590719;19;19978;-27
2022/06/06 04:30:01;;;;;;;;;;;17.50;99.90;;;;;;4589111;19;20404;-29
2022/06/06 04:31:35;;;;;;;;;;;17.60;99.90;;;;;;4588052;19;20246;-25
2022/06/06 04:33:08;;;;;;;;;;;17.60;99.90;;;;;;4588020;19;19971;-28
2022/06/06 04:34:46;;;;;;;;;;;17.60;99.90;;;;;;4588062;19;19940;-26
2022/06/06 04:36:19;;;;;;;;;;;17.60;99.90;;;;;;4587988;19;19915;-25
2022/06/06 04:37:53;;;;;;;;;;;17.60;99.90;;;;;;4588387;19;20564;-25
2022/06/06 04:39:29;;;;;;;;;;;17.70;99.90;;;;;;4588631;19;19922;-26
2022/06/06 04:41:12;;;;;;;;;;;17.70;99.90;;;;;;4588330;19;19951;-27
2022/06/06 04:42:45;;;;;;;;;;;17.70;99.90;;;;;;4588394;19;20317;-27
2022/06/06 04:44:20;;;;;;;;;;;17.70;99.90;;;;;;4588504;19;19921;-24
2022/06/06 04:46:01;;;;;;;;;;;17.80;99.90;;;;;;4588502;19;19919;-26
2022/06/06 04:47:34;;;;;;;;;;;18.00;99.90;;;;;;4589005;19;20000;-29
2022/06/06 04:49:04;;;;;;;;;;;18.10;99.90;;;;;;4588439;19;19918;-28
2022/06/06 04:50:35;;;;;;;;;;;18.30;99.90;;;;;;4587256;19;19915;-26
2022/06/06 04:52:06;;;;;;;;;;;18.40;99.90;;;;;;4588267;19;19919;-30
2022/06/06 04:53:38;;;;;;;;;;;18.50;99.90;;;;;;4588282;19;20382;-26
2022/06/06 04:55:09;;;;;;;;;;;18.60;99.90;;;;;;4588071;19;20013;-28
2022/06/06 04:56:40;;;;;;;;;;;18.50;99.90;;;;;;4588326;19;19919;-30
2022/06/06 04:58:11;;;;;;;;;;;18.40;99.90;;;;;;4589097;19;20347;-28
2022/06/06 04:59:42;;;;;;;;;;;18.30;99.90;;;;;;4589103;19;19915;-27
2022/06/06 05:01:14;;;;;;;;;;;18.20;99.90;;;;;;4588748;19;20254;-26
2022/06/06 05:02:45;;;;;;;;;;;18.20;99.90;;;;;;4589603;19;19922;-27
2022/06/06 05:04:16;;;;;;;;;;;18.10;99.90;;;;;;4588348;19;19927;-28
2022/06/06 05:05:47;;;;;;;;;;;18.10;99.90;;;;;;4589913;19;19918;-27
2022/06/06 05:07:18;;;;;;;;;;;18.10;99.90;;;;;;4587718;19;19932;-28
2022/06/06 05:09:15;;;;;;;;;;;18.00;99.90;;;;;;4591080;19;19923;-29
2022/06/06 05:10:50;;;;;;;;;;;18.00;99.90;;;;;;4586690;19;19907;-25
2022/06/06 05:12:21;;;;;;;;;;;18.10;99.90;;;;;;4589277;19;19915;-28
2022/06/06 05:13:56;;;;;;;;;;;18.00;99.90;;;;;;4588609;19;19952;-27
2022/06/06 05:15:39;;;;;;;;;;;18.10;99.90;;;;;;4588400;19;20426;-28
2022/06/06 05:17:16;;;;;;;;;;;18.10;99.90;;;;;;4588467;19;20263;-26
2022/06/06 05:18:57;;;;;;;;;;;18.20;99.90;;;;;;4588133;19;19974;-26
2022/06/06 05:20:30;;;;;;;;;;;18.20;99.90;;;;;;4588143;19;19940;-26
2022/06/06 05:22:07;;;;;;;;;;;18.30;99.90;;;;;;4587726;19;19919;-27
2022/06/06 05:23:47;;;;;;;;;;;18.30;99.90;;;;;;4592662;19;19922;-27
2022/06/06 05:25:25;;;;;;;;;;;18.40;99.90;;;;;;4592342;19;20463;-24
2022/06/06 05:27:06;;;;;;;;;;;18.40;99.90;;;;;;4591728;19;20082;-28
2022/06/06 05:28:41;;;;;;;;;;;18.50;99.90;;;;;;4591679;19;20334;-26
2022/06/06 05:30:14;;;;;;;;;;;18.50;99.90;;;;;;4590305;19;20315;-27
2022/06/06 05:31:45;;;;;;;;;;;18.60;99.90;;;;;;4591531;19;19923;-29
2022/06/06 05:33:16;;;;;;;;;;;18.60;99.90;;;;;;4590913;19;19927;-29
2022/06/06 05:34:52;;;;;;;;;;;18.70;99.90;;;;;;4590373;19;20279;-31
2022/06/06 05:36:26;;;;;;;;;;;18.70;99.90;;;;;;4590379;19;20326;-28
2022/06/06 05:38:00;;;;;;;;;;;18.70;99.90;;;;;;4590799;19;19925;-27
2022/06/06 05:39:45;;;;;;;;;;;18.80;99.90;;;;;;4593741;19;20020;-27
2022/06/06 05:41:27;;;;;;;;;;;18.80;99.90;;;;;;4593089;19;19926;-27
2022/06/06 05:43:05;;;;;;;;;;;18.80;99.90;;;;;;4592405;19;20350;-29
2022/06/06 05:44:42;;;;;;;;;;;18.80;99.90;;;;;;4596081;19;20017;-30
2022/06/06 05:46:25;;;;;;;;;;;18.80;99.90;;;;;;4592838;19;19915;-28
2022/06/06 05:48:25;;;;;;;;;;;18.90;99.90;;;;;;4593732;19;19922;-31
2022/06/06 05:50:15;;;;;;;;;;;18.90;99.90;;;;;;4590597;19;19928;-34
2022/06/06 05:52:13;;;;;;;;;;;18.90;99.90;;;;;;4596937;19;20316;-34
2022/06/06 05:54:02;;;;;;;;;;;19.00;99.90;;;;;;4591956;19;20001;-30
2022/06/06 05:55:43;;;;;;;;;;;19.00;99.90;;;;;;4592134;19;19923;-29
2022/06/06 05:57:13;;;;;;;;;;;19.00;99.90;;;;;;4592383;19;19917;-31
2022/06/06 05:59:03;;;;;;;;;;;19.00;99.90;;;;;;4592339;19;19919;-29
2022/06/06 06:00:41;;;;;;;;;;;19.00;99.90;;;;;;4591095;19;19914;-27
2022/06/06 06:02:21;;;;;;;;;;;19.00;99.90;;;;;;4591563;19;20266;-29
2022/06/06 06:04:10;;;;;;;;;;;19.00;99.90;;;;;;4592018;19;19927;-33
2022/06/06 06:05:56;;;;;;;;;;;19.10;99.90;;;;;;4589785;19;20168;-30
2022/06/06 06:07:29;;;;;;;;;;;19.00;99.90;;;;;;4590100;19;19990;-30
2022/06/06 06:09:19;;;;;;;;;;;19.30;99.90;;;;;;4591828;19;19923;-33
2022/06/06 06:11:09;;;;;;;;;;;19.20;99.90;;;;;;4591426;19;20328;-29
2022/06/06 06:12:45;;;;;;;;;;;19.20;99.90;;;;;;4591421;19;19914;-29
2022/06/06 06:14:16;;;;;;;;;;;19.20;99.90;;;;;;4591520;19;19925;-29
2022/06/06 06:15:47;;;;;;;;;;;19.20;99.90;;;;;;4591863;19;19911;-29
2022/06/06 06:17:19;;;;;;;;;;;19.20;99.90;;;;;;4591983;19;19922;-28
2022/06/06 06:19:09;;;;;;;;;;;19.20;99.90;;;;;;4591446;19;19919;-28
2022/06/06 06:20:44;;;;;;;;;;;19.20;99.90;;;;;;4591238;19;20281;-28
2022/06/06 06:22:15;;;;;;;;;;;19.20;99.90;;;;;;4591430;19;20261;-28
2022/06/06 06:23:48;;;;;;;;;;;19.30;99.90;;;;;;4591712;19;19914;-30
2022/06/06 06:25:19;;;;;;;;;;;19.30;99.90;;;;;;4591263;19;19922;-28
2022/06/06 06:26:50;;;;;;;;;;;19.30;99.90;;;;;;4591853;19;19935;-31
2022/06/06 06:28:21;;;;;;;;;;;19.30;99.90;;;;;;4592276;19;19923;-29
2022/06/06 06:29:52;;;;;;;;;;;19.30;99.90;;;;;;4592031;19;19921;-28
2022/06/06 06:31:33;;;;;;;;;;;19.30;99.90;;;;;;4592873;19;19911;-30
2022/06/06 06:33:15;;;;;;;;;;;19.30;99.90;;;;;;4591978;19;19911;-28
2022/06/06 06:34:49;;;;;;;;;;;19.30;99.90;;;;;;4592080;19;19911;-29
2022/06/06 06:36:32;;;;;;;;;;;19.30;99.90;;;;;;4592155;19;20264;-28
2022/06/06 06:38:03;;;;;;;;;;;19.30;99.90;;;;;;4593088;19;20257;-28
2022/06/06 06:39:40;;;;;;;;;;;19.30;99.90;;;;;;4593188;19;19915;-30
2022/06/06 06:41:19;;;;;;;;;;;19.30;99.90;;;;;;4592140;19;19911;-29
2022/06/06 06:42:54;;;;;;;;;;;19.40;99.90;;;;;;4592598;19;19938;-32
2022/06/06 06:44:26;;;;;;;;;;;19.50;99.90;;;;;;4593173;19;19982;-30
2022/06/06 06:45:58;;;;;;;;;;;19.50;99.90;;;;;;4592940;19;19967;-30
2022/06/06 06:47:29;;;;;;;;;;;19.50;99.90;;;;;;4591790;19;20333;-28
2022/06/06 06:49:24;;;;;;;;;;;19.50;99.90;;;;;;4592943;19;19922;-29
2022/06/06 06:50:56;;;;;;;;;;;19.50;99.90;;;;;;4590603;19;19982;-29
2022/06/06 06:52:52;;;;;;;8.63;7.82;;;19.50;99.90;;;;;;4590212;19;19919;-30
2022/06/06 06:54:29;;;;;;;9.02;7.93;;;19.50;99.90;;;;;;4589675;19;20102;-29
2022/06/06 06:56:22;;;;;;;8.95;7.63;;;19.60;99.90;;;;;;4589813;19;20379;-33
2022/06/06 06:58:02;;;;;;;9.57;7.50;;;19.60;99.90;;;;;;4589660;19;20003;-29
2022/06/06 06:59:47;;;;;;;;;;;19.60;99.90;;;;;;4590540;19;20477;-33
2022/06/06 07:01:38;;;;;;;;;;;19.60;99.90;;;;;;4590034;19;19930;-28
2022/06/06 07:08:54;;;;;;;6.93;6.30;;;19.70;99.90;;;;;;4589074;19;19915;-31
2022/06/06 07:10:39;;;;;;;8.70;7.80;;;19.70;99.90;;;;;;4588450;19;20082;-32
2022/06/06 07:12:16;;;;;;;8.30;6.85;;;19.80;99.90;;;;;;4589377;19;20023;-27
2022/06/06 07:14:00;;;;;;;9.50;7.20;;;19.80;99.90;;;;;;4589411;19;20010;-30
2022/06/06 07:15:43;;;;;;;7.63;6.93;;;19.80;99.90;;;;;;4586693;19;20025;-29
2022/06/06 07:17:14;;;;;;;6.82;6.13;;;19.90;99.90;;;;;;4589153;19;20016;-29
2022/06/06 07:18:46;;;;;;;7.10;6.43;;;19.90;99.90;;;;;;4589230;19;20473;-29
2022/06/06 07:20:18;;;;;;;7.47;6.72;;;19.90;99.90;;;;;;4588806;19;20010;-31
2022/06/06 07:21:50;;;;;;;7.25;6.45;;;20.00;99.90;;;;;;4589103;19;20014;-29
2022/06/06 07:23:22;;;;;;;;;;;20.10;99.90;;;;;;4589740;19;20070;-28
2022/06/06 07:24:57;;;;;;;6.63;5.57;;;20.10;99.90;;;;;;4589394;19;19911;-31
2022/06/06 07:26:28;;;;;;;;;;;20.20;99.90;;;;;;4589405;19;20019;-28
2022/06/06 07:28:00;;;;;;;;;;;20.20;99.90;;;;;;4589852;19;19915;-30
2022/06/06 07:29:33;;;;;;;;;;;20.20;99.90;;;;;;4589316;19;19918;-29
2022/06/06 07:31:22;;;;;;;;;;;20.20;99.90;;;;;;4591331;19;19919;-30
2022/06/06 07:32:56;;;;;;;;;;;20.20;99.90;;;;;;4590800;19;19943;-31
2022/06/06 07:34:37;;;;;;;;;;;20.20;99.90;;;;;;4591428;19;19928;-28
2022/06/06 07:36:27;;;;;;;;;;;20.30;99.90;;;;;;4591503;19;19925;-30
2022/06/06 07:38:16;;;;;;;;;;;20.30;99.90;;;;;;4590779;19;19938;-34
2022/06/06 07:40:09;;;;;;;;;;;20.30;99.90;;;;;;4591498;19;19936;-28
2022/06/06 07:42:03;;;;;;;;;;;20.30;99.90;;;;;;4590718;19;20261;-32
2022/06/06 07:43:46;;;;;;;;;;;20.40;99.90;;;;;;4589467;19;20248;-28
2022/06/06 07:45:26;;;;;;;;;;;20.40;99.90;;;;;;4591504;19;19956;-27
2022/06/06 07:47:07;;;;;;;;;;;20.40;99.90;;;;;;4590183;19;20242;-33
2022/06/06 07:48:42;;;;;;;;;;;20.40;99.90;;;;;;4591975;19;19922;-28
2022/06/06 07:50:14;;;;;;;;;;;20.50;99.90;;;;;;4590918;19;19914;-31
2022/06/06 07:51:54;;;;;;;;;;;20.50;99.90;;;;;;4591749;19;20409;-28
2022/06/06 07:53:28;;;;;;;;;;;20.60;99.90;;;;;;4591477;19;19925;-29
2022/06/06 07:55:14;;;;;;;;;;;20.60;99.90;;;;;;4591748;19;19922;-30
2022/06/06 07:56:52;;;;;;;;;;;20.60;99.90;;;;;;4591599;19;19921;-29
2022/06/06 07:58:42;;;;;;;;;;;20.60;99.90;;;;;;4591182;19;19918;-31
2022/06/06 08:00:16;;;;;;;;;;;20.60;99.90;;;;;;4591729;19;19929;-31
2022/06/06 08:01:53;;;;;;;;;;;20.60;99.90;;;;;;4589182;19;19919;-27
2022/06/06 08:04:02;;;;;;;6.20;5.60;;;20.70;99.90;;;;;;4589130;19;20258;-28
2022/06/06 08:05:57;;;;;;;5.43;4.90;;;20.70;99.90;;;;;;4587886;19;20031;-28
2022/06/06 08:07:39;;;;;;;23.63;12.65;;;20.80;99.90;;;;;;4587207;19;20010;-29
2022/06/06 08:09:33;;;;;;;6.15;5.55;;;21.00;99.90;;;;;;4588552;19;20007;-30
2022/06/06 08:11:24;;;;;;;5.43;4.88;;;21.10;99.90;;;;;;4587695;19;20499;-26
2022/06/06 08:13:18;;;;;;;5.78;5.20;;;21.00;99.90;;;;;;4587844;19;20022;-31
2022/06/06 08:15:15;;;;;;;6.22;5.18;;;20.80;99.90;;;;;;4588170;19;20101;-29
2022/06/06 08:17:06;;;;;;;5.82;5.22;;;20.80;99.90;;;;;;4588203;19;20346;-27
2022/06/06 08:19:30;;;;;;;6.43;4.70;;;20.90;99.90;;;;;;4588067;19;20006;-26
2022/06/06 08:21:19;;;;;;;5.40;4.90;;;21.00;99.90;;;;;;4587871;19;20018;-26
2022/06/06 08:22:51;;;;;;;6.13;5.30;;;21.20;99.90;;;;;;4587606;19;20547;-26
2022/06/06 08:24:28;;;;;;;6.05;5.35;;;21.40;99.90;;;;;;4587739;19;20567;-28
2022/06/06 08:25:59;;;;;;;18.63;10.40;;;21.60;99.90;;;;;;4587779;19;20011;-28
2022/06/06 08:27:30;;;;;;;9.15;6.32;;;21.70;99.90;;;;;;4587508;19;20413;-33
2022/06/06 08:29:02;;;;;;;25.75;14.05;;;21.80;99.90;;;;;;4587495;19;19998;-31
2022/06/06 08:30:34;;;;;;;;;;;22.10;99.90;;;;;;4587612;19;20026;-29
2022/06/06 08:32:06;;;;;;;5.55;5.05;;;22.10;99.90;;;;;;4587520;19;19911;-29
2022/06/06 08:33:37;;;;;;;6.70;5.13;;;21.90;99.90;;;;;;4587343;19;20412;-33
2022/06/06 08:35:09;;;;;;;6.25;5.65;;;22.00;99.90;;;;;;4588048;19;19995;-32
2022/06/06 08:36:46;;;;;;;;;;;21.80;99.90;;;;;;4588432;19;20455;-37
2022/06/06 08:38:23;;;;;;;8.93;6.40;;;21.60;99.90;;;;;;4587336;19;20354;-38
2022/06/06 08:40:17;;;;;;;43.47;20.60;;;21.70;99.90;;;;;;4587724;19;20014;-29
2022/06/06 08:42:09;;;;;;;35.70;17.05;;;21.80;99.90;;;;;;4587733;19;20010;-29
2022/06/06 08:43:47;;;;;;;29.45;14.20;;;22.10;99.90;;;;;;4589496;19;20021;-35
2022/06/06 08:45:42;;;;;;;13.55;8.13;;;22.30;99.90;;;;;;4588118;19;20015;-31
2022/06/06 08:47:32;;;;;;;44.97;20.85;;;22.30;99.90;;;;;;4588228;19;20025;-36
2022/06/06 08:49:10;;;;;;;29.10;15.52;;;22.60;99.90;;;;;;4587274;19;20006;-29
2022/06/06 08:50:51;;;;;;;5.85;5.25;;;22.70;99.90;;;;;;4586315;19;20014;-28
2022/06/06 08:52:34;;;;;;;4.63;4.22;;;22.30;99.90;;;;;;4587199;19;20011;-28
2022/06/06 08:54:05;;;;;;;6.57;4.90;;;22.10;99.90;;;;;;4587260;19;20359;-30
2022/06/06 08:55:48;;;;;;;4.97;4.43;;;22.00;99.90;;;;;;4587577;19;20532;-32
2022/06/06 08:57:44;;;;;;;4.80;4.30;;;22.00;99.90;;;;;;4589846;19;20022;-29
2022/06/06 08:59:43;;;;;;;6.72;4.97;;;21.70;99.90;;;;;;4594122;19;20367;-30
2022/06/06 09:01:47;;;;;;;4.88;4.40;;;21.80;99.90;;;;;;4593739;19;20027;-29
2022/06/06 09:03:55;;;;;;;5.22;4.72;;;21.80;99.90;;;;;;4594072;19;20571;-35
2022/06/06 09:06:08;;;;;;;5.70;4.72;;;21.70;99.90;;;;;;4594108;19;20396;-31
2022/06/06 09:08:17;;;;;;;4.60;4.20;;;21.90;99.90;;;;;;4592557;19;20026;-32
2022/06/06 09:10:07;;;;;;;5.13;4.63;;;21.90;99.90;;;;;;4593322;19;20010;-30
2022/06/06 09:12:02;;;;;;;6.55;4.75;;;21.80;99.90;;;;;;4593978;19;20013;-30
2022/06/06 09:13:55;;;;;;;6.82;5.05;;;21.70;99.90;;;;;;4592741;19;20011;-29
2022/06/06 09:15:54;;;;;;;10.35;6.57;;;21.70;99.90;;;;;;4594001;19;20018;-32
2022/06/06 09:17:55;;;;;;;7.82;5.30;;;21.90;99.90;;;;;;4593507;19;20034;-28
2022/06/06 09:19:35;;;;;;;5.90;4.75;;;22.10;99.90;;;;;;4593891;19;20043;-31
2022/06/06 09:21:14;;;;;;;12.13;6.88;;;22.20;99.90;;;;;;4594189;19;20007;-31
2022/06/06 09:23:16;;;;;;;8.18;5.18;;;22.20;99.90;;;;;;4593177;19;20059;-30
2022/06/06 09:24:56;;;;;;;21.50;11.55;;;22.30;99.90;;;;;;4593982;19;20006;-29
2022/06/06 09:26:47;;;;;;;4.78;4.25;;;22.30;99.90;;;;;;4593436;19;20041;-29
2022/06/06 09:28:56;;;;;;;34.95;17.98;;;22.20;99.90;;;;;;4593309;19;20024;-32
2022/06/06 09:30:42;;;;;;;29.25;13.07;;;22.40;99.90;;;;;;4592157;19;20070;-31
2022/06/06 09:32:46;;;;;;;24.40;12.70;;;22.60;99.90;;;;;;4593305;19;20089;-32